Time;durP1;ratioP1;P1;durP2;ratioP2;P2;SDS_P1;SDS_P2;PMS_P1;PMS_P2;Temp;Humidity;BMP_temperature;BMP_pressure;BME280_temperature;BME280_humidity;BME280_pressure;Samples;Min_cycle;Max_cycle;Signal;HPM_P1;HPM_P2
2022/01/14 00:00:06;;;;;;;247.50;32.72;;;;;;;1.80;100.00;103878.16;5274617;28;20026;-73
2022/01/14 00:02:37;;;;;;;78.57;25.13;;;;;;;1.76;100.00;103888.88;5283782;28;20102;-73
2022/01/14 00:05:07;;;;;;;296.08;35.35;;;;;;;1.76;100.00;103887.09;5269300;28;20442;-74
2022/01/14 00:07:38;;;;;;;112.55;25.38;;;;;;;1.74;100.00;103875.66;5271120;28;20709;-73
2022/01/14 00:10:09;;;;;;;141.00;26.70;;;;;;;1.79;100.00;103878.22;5281993;28;20027;-74
2022/01/14 00:12:47;;;;;;;133.85;27.13;;;;;;;1.80;100.00;103875.50;5262941;28;20032;-74
2022/01/14 00:18:07;;;;;;;405.00;40.45;;;;;;;1.68;100.00;103867.88;5283795;28;20424;-73
2022/01/14 00:20:38;;;;;;;146.50;27.52;;;;;;;1.69;100.00;103853.72;5275557;28;20114;-73
2022/01/14 00:23:09;;;;;;;143.75;29.23;;;;;;;1.71;100.00;103851.06;5276151;28;20154;-73
2022/01/14 00:34:06;;;;;;;181.98;30.33;;;;;;;1.65;100.00;103841.47;5271058;28;20030;-74
2022/01/14 00:36:38;;;;;;;132.90;25.98;;;;;;;1.67;100.00;103833.50;5268545;28;20020;-74
2022/01/14 00:39:10;;;;;;;245.63;31.60;;;;;;;1.63;100.00;103835.34;5270055;28;20023;-74
2022/01/14 00:41:42;;;;;;;108.50;25.55;;;;;;;1.58;100.00;103834.56;5271202;28;20084;-74
2022/01/14 00:44:15;;;;;;;106.70;26.50;;;;;;;1.58;100.00;103837.22;5283309;28;20012;-74
2022/01/14 00:46:47;;;;;;;263.90;33.47;;;;;;;1.54;100.00;103828.47;5274329;28;20032;-74
2022/01/14 00:49:20;;;;;;;168.95;27.58;;;;;;;1.49;100.00;103826.84;5271221;28;20036;-74
2022/01/14 00:51:51;;;;;;;117.38;25.98;;;;;;;1.50;100.00;103818.88;5275916;28;20020;-73
2022/01/14 00:54:21;;;;;;;123.35;28.15;;;;;;;1.50;100.00;103820.63;5285678;28;20477;-74
2022/01/14 00:59:41;;;;;;;137.75;26.30;;;;;;;1.40;100.00;103819.09;5277555;27;20052;-73
2022/01/14 01:02:12;;;;;;;146.25;26.92;;;;;;;1.43;100.00;103819.91;5266611;28;20051;-74
2022/01/14 01:04:43;;;;;;;311.42;35.40;;;;;;;1.37;100.00;103822.72;5277256;28;20023;-73
2022/01/14 01:07:14;;;;;;;111.75;26.17;;;;;;;1.27;100.00;103826.47;5271443;28;20042;-73
2022/01/14 01:09:48;;;;;;;123.93;25.60;;;;;;;1.30;100.00;103829.03;5273972;28;20123;-73
2022/01/14 01:12:36;;;;;;;133.80;25.45;;;;;;;1.30;100.00;103826.38;5287208;28;20396;-74
2022/01/14 01:15:14;;;;;;;107.43;24.42;;;;;;;1.28;100.00;103822.91;5282903;28;20059;-74
2022/01/14 01:17:45;;;;;;;186.88;28.58;;;;;;;1.26;100.00;103817.66;5278488;28;20032;-74
2022/01/14 01:20:18;;;;;;;342.40;33.75;;;;;;;1.20;100.00;103819.53;5286988;28;20555;-76
2022/01/14 01:22:52;;;;;;;118.93;25.17;;;;;;;1.15;100.00;103811.72;5287062;28;20107;-74
2022/01/14 01:25:25;;;;;;;147.40;27.63;;;;;;;1.12;100.00;103814.44;5278268;28;20028;-75
2022/01/14 01:27:56;;;;;;;104.55;24.17;;;;;;;1.11;100.00;103815.34;5281834;28;20028;-73
2022/01/14 01:30:49;;;;;;;114.72;24.92;;;;;;;1.14;100.00;103817.03;5276810;28;20457;-73
2022/01/14 01:33:18;;;;;;;263.45;30.25;;;;;;;1.12;100.00;103803.00;5286091;28;20085;-74
2022/01/14 01:35:49;;;;;;;314.48;34.55;;;;;;;1.05;100.00;103799.59;5272585;28;20020;-74
2022/01/14 01:38:19;;;;;;;97.57;23.27;;;;;;;1.02;100.00;103802.31;5286920;28;20015;-74
2022/01/14 01:40:50;;;;;;;262.42;31.98;;;;;;;1.02;100.00;103795.25;5286543;28;20530;-74
2022/01/14 01:43:24;;;;;;;105.10;24.17;;;;;;;1.00;100.00;103796.16;5287026;28;20023;-73
2022/01/14 01:45:55;;;;;;;269.77;32.22;;;;;;;0.96;100.00;103791.88;5283384;28;20027;-73
2022/01/14 01:48:26;;;;;;;279.23;30.65;;;;;;;0.93;100.00;103803.38;5275544;28;20059;-74
2022/01/14 01:50:58;;;;;;;213.70;28.40;;;;;;;0.90;100.00;103794.63;5282232;28;20020;-73
2022/01/14 01:53:28;;;;;;;207.75;27.83;;;;;;;0.79;100.00;103805.41;5265381;28;20123;-74
2022/01/14 01:56:00;;;;;;;260.58;29.23;;;;;;;0.70;100.00;103798.56;5278720;28;20111;-74
2022/01/14 01:58:30;;;;;;;263.90;32.90;;;;;;;0.64;100.00;103797.78;5264732;28;20413;-74
2022/01/14 02:01:04;;;;;;;182.70;27.65;;;;;;;0.66;100.00;103793.38;5285734;28;20031;-74
2022/01/14 02:03:36;;;;;;;227.82;29.92;;;;;;;0.61;100.00;103793.47;5287195;28;20062;-74
2022/01/14 02:06:07;;;;;;;221.80;28.40;;;;;;;0.53;100.00;103792.72;5286637;28;20020;-73
2022/01/14 02:08:38;;;;;;;242.70;30.35;;;;;;;0.48;100.00;103787.53;5282862;27;20027;-74
2022/01/14 02:11:08;;;;;;;229.27;29.70;;;;;;;0.46;100.00;103793.75;5265569;28;20051;-74
2022/01/14 02:13:40;;;;;;;262.85;29.90;;;;;;;0.47;100.00;103787.56;5269419;28;20031;-73
2022/01/14 02:16:18;;;;;;;262.80;30.83;;;;;;;0.43;100.00;103786.75;5286367;28;20089;-72
2022/01/14 02:19:12;;;;;;;247.23;29.70;;;;;;;0.29;100.00;103791.41;5279854;28;20101;-72
2022/01/14 02:27:15;;;;;;;298.83;34.50;;;;;;;0.17;100.00;103786.34;5280596;28;20031;-73
2022/01/14 02:29:45;;;;;;;268.60;29.33;;;;;;;0.14;100.00;103779.34;5286414;28;20139;-73
2022/01/14 02:32:16;;;;;;;222.02;32.10;;;;;;;0.10;100.00;103767.13;5275895;28;20024;-72
2022/01/14 02:34:46;;;;;;;228.13;29.00;;;;;;;0.12;100.00;103770.59;5278733;28;20016;-73
2022/01/14 02:37:20;;;;;;;256.85;32.47;;;;;;;0.11;100.00;103774.16;5265194;28;20384;-73
2022/01/14 02:39:51;;;;;;;228.02;29.80;;;;;;;0.10;100.00;103766.22;5285085;28;20028;-73
2022/01/14 02:42:22;;;;;;;231.27;28.40;;;;;;;-0.06;100.00;103765.63;5285313;28;20111;-73
2022/01/14 02:45:00;;;;;;;217.80;29.85;;;;;;;-0.17;100.00;103771.09;5265011;28;20107;-72
2022/01/14 02:47:31;;;;;;;206.73;29.63;;;;;;;-0.18;100.00;103766.72;5278461;28;20029;-73
2022/01/14 02:50:03;;;;;;;289.95;35.13;;;;;;;-0.20;100.00;103771.16;5275129;28;20034;-73
2022/01/14 02:55:30;;;;;;;273.77;31.42;;;;;;;-0.20;100.00;103754.44;5278525;28;20064;-72
2022/01/14 02:58:00;;;;;;;355.13;36.83;;;;;;;-0.19;100.00;103750.94;5274048;28;20018;-72
2022/01/14 03:00:31;;;;;;;205.88;29.85;;;;;;;-0.23;100.00;103747.47;5282374;28;20020;-73
2022/01/14 03:03:04;;;;;;;208.23;28.65;;;;;;;-0.22;100.00;103743.91;5275474;28;20541;-73
2022/01/14 03:05:35;;;;;;;281.83;32.00;;;;;;;-0.24;100.00;103739.56;5271621;28;20077;-73
2022/01/14 03:08:06;;;;;;;347.83;35.33;;;;;;;-0.28;100.00;103742.25;5284144;27;20055;-73
2022/01/14 03:10:37;;;;;;;264.30;32.13;;;;;;;-0.31;100.00;103738.78;5265080;27;20059;-73
2022/01/14 03:13:08;;;;;;;338.88;36.53;;;;;;;-0.31;100.00;103737.00;5278429;28;20019;-72
2022/01/14 03:15:39;;;;;;;241.38;34.92;;;;;;;-0.35;100.00;103731.81;5278117;28;20082;-72
2022/01/14 03:18:10;;;;;;;255.88;31.30;;;;;;;-0.37;100.00;103733.63;5265347;28;20028;-73
2022/01/14 03:23:30;;;;;;;210.43;30.90;;;;;;;-0.43;100.00;103734.59;5269219;28;20016;-72
2022/01/14 03:26:01;;;;;;;146.95;27.45;;;;;;;-0.41;100.00;103732.78;5277589;28;20520;-72
2022/01/14 03:28:31;;;;;;;228.32;33.70;;;;;;;-0.43;100.00;103739.00;5264784;28;20024;-73
2022/01/14 03:31:02;;;;;;;155.52;28.95;;;;;;;-0.47;100.00;103735.53;5277996;28;20034;-72
2022/01/14 03:33:32;;;;;;;208.57;32.85;;;;;;;-0.49;100.00;103742.59;5277546;28;20111;-72
2022/01/14 03:36:04;;;;;;;218.30;30.30;;;;;;;-0.56;100.00;103733.03;5263711;28;20027;-73
2022/01/14 03:38:35;;;;;;;150.13;29.13;;;;;;;-0.60;100.00;103728.72;5264079;28;20020;-72
2022/01/14 03:41:06;;;;;;;201.63;33.08;;;;;;;-0.63;100.00;103732.25;5280024;28;20835;-71
2022/01/14 03:43:38;;;;;;;148.52;29.67;;;;;;;-0.66;100.00;103742.84;5285242;28;20023;-72
2022/01/14 03:46:09;;;;;;;158.57;29.25;;;;;;;-0.68;100.00;103739.38;5284498;28;20023;-71
2022/01/14 03:48:40;;;;;;;151.40;29.90;;;;;;;-0.69;100.00;103731.50;5284947;28;20312;-71
2022/01/14 03:51:12;;;;;;;105.53;27.42;;;;;;;-0.70;100.00;103738.53;5264647;28;20107;-71
2022/01/14 03:53:42;;;;;;;135.02;28.85;;;;;;;-0.69;100.00;103734.13;5277379;28;20050;-71
2022/01/14 03:56:14;;;;;;;74.80;26.08;;;;;;;-0.68;100.00;103736.75;5263890;28;20478;-71
2022/01/14 03:58:44;;;;;;;120.80;29.10;;;;;;;-0.68;100.00;103727.97;5263843;28;20034;-71
2022/01/14 04:01:15;;;;;;;112.10;28.70;;;;;;;-0.68;100.00;103727.97;5264155;28;20016;-71
2022/01/14 04:03:48;;;;;;;135.80;29.80;;;;;;;-0.68;100.00;103736.75;5279472;28;20100;-71
2022/01/14 04:06:19;;;;;;;110.80;29.05;;;;;;;-0.67;100.00;103734.97;5284538;28;20103;-71
2022/01/14 04:08:50;;;;;;;93.28;27.75;;;;;;;-0.67;100.00;103727.06;5279370;28;20115;-72
2022/01/14 04:11:22;;;;;;;159.80;30.92;;;;;;;-0.67;100.00;103732.34;5275217;28;20031;-72
2022/01/14 04:13:55;;;;;;;97.55;26.98;;;;;;;-0.69;100.00;103737.63;5278675;28;20048;-72
2022/01/14 04:16:27;;;;;;;80.50;27.55;;;;;;;-0.71;100.00;103730.63;5276513;28;20107;-72
2022/01/14 04:18:57;;;;;;;78.78;26.67;;;;;;;-0.75;100.00;103727.19;5263412;28;20206;-71
2022/01/14 04:21:29;;;;;;;75.95;27.40;;;;;;;-0.78;100.00;103724.59;5279529;28;20106;-71
2022/01/14 04:23:59;;;;;;;96.28;29.35;;;;;;;-0.82;100.00;103720.25;5267847;28;20511;-71
2022/01/14 04:26:30;;;;;;;83.30;25.95;;;;;;;-0.87;100.00;103717.69;5277184;28;20024;-71
2022/01/14 04:29:00;;;;;;;89.57;27.52;;;;;;;-0.90;100.00;103706.34;5288413;28;20504;-71
2022/01/14 04:31:31;;;;;;;98.18;29.75;;;;;;;-0.92;100.00;103718.66;5274951;28;20395;-71
2022/01/14 04:34:01;;;;;;;99.50;29.02;;;;;;;-0.97;100.00;103710.81;5277298;27;20095;-71
2022/01/14 04:36:32;;;;;;;96.80;29.17;;;;;;;-1.00;100.00;103716.13;5272896;28;20130;-71
2022/01/14 04:39:04;;;;;;;80.57;27.05;;;;;;;-1.00;100.00;103709.97;5275864;28;20309;-71
2022/01/14 04:41:34;;;;;;;92.35;29.20;;;;;;;-0.98;100.00;103722.25;5275440;28;20062;-71
2022/01/14 04:44:06;;;;;;;84.95;28.55;;;;;;;-0.99;100.00;103715.22;5287705;28;20023;-71
2022/01/14 04:49:23;;;;;;;86.20;30.02;;;;;;;-1.01;100.00;103711.72;5280900;28;20074;-71
2022/01/14 04:51:55;;;;;;;93.57;31.38;;;;;;;-1.00;100.00;103709.97;5279026;28;20024;-71
2022/01/14 04:54:26;;;;;;;84.22;28.33;;;;;;;-1.02;100.00;103699.47;5274257;28;20110;-71
2022/01/14 04:56:56;;;;;;;93.32;29.52;;;;;;;-1.06;100.00;103701.25;5288141;28;20100;-72
2022/01/14 04:59:27;;;;;;;90.95;28.60;;;;;;;-1.09;100.00;103695.19;5288019;28;20023;-73
2022/01/14 05:01:58;;;;;;;96.95;29.67;;;;;;;-1.12;100.00;103700.47;5272531;28;20412;-72
2022/01/14 05:04:29;;;;;;;88.32;29.05;;;;;;;-1.13;100.00;103693.47;5278903;28;20110;-72
2022/01/14 05:07:02;;;;;;;82.28;27.00;;;;;;;-1.10;100.00;103689.03;5269466;28;20048;-72
2022/01/14 05:09:39;;;;;;;92.10;30.60;;;;;;;-1.02;100.00;103686.28;5287996;28;20063;-72
2022/01/14 05:12:10;;;;;;;93.00;30.90;;;;;;;-0.94;100.00;103689.69;5283279;28;20062;-72
2022/01/14 05:14:41;;;;;;;90.05;31.67;;;;;;;-0.85;100.00;103689.56;5266225;28;20419;-72
2022/01/14 05:17:11;;;;;;;93.75;32.55;;;;;;;-0.78;100.00;103690.31;5286693;28;20022;-71
2022/01/14 05:19:42;;;;;;;104.30;33.30;;;;;;;-0.70;100.00;103690.19;5287629;28;20042;-72
2022/01/14 05:22:12;;;;;;;92.13;30.58;;;;;;;-0.66;100.00;103687.47;5280984;28;20074;-72
2022/01/14 05:24:44;;;;;;;92.30;29.83;;;;;;;-0.60;100.00;103684.78;5266671;28;20027;-71
2022/01/14 05:27:15;;;;;;;84.10;30.08;;;;;;;-0.52;100.00;103689.91;5273766;28;20038;-72
2022/01/14 05:29:46;;;;;;;99.70;32.35;;;;;;;-0.47;100.00;103689.81;5282562;28;20473;-73
2022/01/14 05:32:16;;;;;;;103.97;33.42;;;;;;;-0.41;100.00;103693.22;5277044;28;20032;-72
2022/01/14 05:34:47;;;;;;;99.20;32.35;;;;;;;-0.34;100.00;103692.25;5280867;28;20349;-72
2022/01/14 05:37:17;;;;;;;91.80;31.35;;;;;;;-0.28;100.00;103691.25;5276697;28;20058;-73
2022/01/14 05:39:48;;;;;;;84.05;30.30;;;;;;;-0.22;100.00;103699.06;5284956;28;20027;-72
2022/01/14 05:42:19;;;;;;;123.72;35.58;;;;;;;-0.14;100.00;103691.03;5287442;28;20032;-73
2022/01/14 05:44:51;;;;;;;132.85;36.08;;;;;;;-0.12;100.00;103686.56;5287023;28;20023;-72
2022/01/14 05:47:22;;;;;;;127.70;39.58;;;;;;;-0.08;100.00;103685.63;5273413;28;20028;-72
2022/01/14 05:49:52;;;;;;;170.48;39.85;;;;;;;-0.05;100.00;103681.16;5287070;28;20258;-72
2022/01/14 05:52:22;;;;;;;165.68;38.63;;;;;;;-0.02;100.00;103673.19;5273283;28;20328;-72
2022/01/14 05:54:53;;;;;;;147.77;39.20;;;;;;;-0.01;100.00;103679.31;5286970;28;20072;-73
2022/01/14 05:57:24;;;;;;;131.68;37.17;;;;;;;0.01;100.00;103672.25;5287043;28;20485;-73
2022/01/14 05:59:54;;;;;;;219.23;42.55;;;;;;;-0.01;100.00;103676.69;5274892;28;20070;-74
2022/01/14 06:02:27;;;;;;;113.35;35.85;;;;;;;0.00;100.00;103675.81;5278961;28;20126;-72
2022/01/14 06:04:57;;;;;;;272.48;48.22;;;;;;;0.01;100.00;103672.25;5265361;28;20030;-73
2022/01/14 06:07:28;;;;;;;207.73;44.50;;;;;;;0.03;100.00;103677.50;5270991;28;20020;-72
2022/01/14 06:09:58;;;;;;;214.65;43.20;;;;;;;0.02;100.00;103671.34;5286839;28;20031;-74
2022/01/14 06:12:29;;;;;;;257.35;46.42;;;;;;;0.02;100.00;103673.13;5279262;28;20032;-74
2022/01/14 06:15:00;;;;;;;238.98;42.88;;;;;;;0.02;100.00;103665.22;5267873;28;20035;-73
2022/01/14 06:17:31;;;;;;;265.88;45.00;;;;;;;0.02;100.00;103652.88;5277587;28;20024;-74
2022/01/14 06:20:03;;;;;;;251.40;41.53;;;;;;;0.01;100.00;103648.50;5279257;28;20050;-75
2022/01/14 06:22:35;;;;;;;282.98;43.45;;;;;;;0.01;100.00;103645.00;5277188;28;20027;-75
2022/01/14 06:25:08;;;;;;;289.27;42.78;;;;;;;-0.02;100.00;103644.13;5268629;28;20464;-74
2022/01/14 06:27:39;;;;;;;206.77;37.85;;;;;;;-0.05;100.00;103641.59;5284229;28;20111;-74
2022/01/14 06:30:10;;;;;;;261.02;40.22;;;;;;;-0.05;100.00;103641.59;5272326;28;20102;-74
2022/01/14 06:32:41;;;;;;;249.45;41.78;;;;;;;-0.05;100.00;103643.31;5286456;28;20389;-74
2022/01/14 06:35:14;;;;;;;204.15;41.22;;;;;;;0.00;100.00;103649.41;5278363;28;20024;-75
2022/01/14 06:37:45;;;;;;;227.18;43.45;;;;;;;0.00;100.00;103646.78;5265123;28;20374;-75
2022/01/14 06:40:16;;;;;;;268.33;47.40;;;;;;;-0.01;100.00;103645.00;5274783;28;20461;-75
2022/01/14 06:42:46;;;;;;;206.95;42.80;;;;;;;0.01;100.00;103645.88;5282543;28;20047;-74
2022/01/14 06:45:17;;;;;;;299.30;48.60;;;;;;;0.02;100.00;103634.41;5276033;28;20023;-75
2022/01/14 06:47:48;;;;;;;206.05;45.22;;;;;;;0.04;100.00;103639.66;5267450;28;20028;-75
2022/01/14 06:50:20;;;;;;;257.30;45.75;;;;;;;0.08;100.00;103652.75;5264832;28;20027;-74
2022/01/14 06:52:51;;;;;;;149.77;41.17;;;;;;;0.09;100.00;103654.50;5285561;28;20654;-73
2022/01/14 06:55:21;;;;;;;163.38;44.10;;;;;;;0.13;100.00;103647.38;5272307;28;20412;-73
2022/01/14 06:57:52;;;;;;;155.05;41.72;;;;;;;0.13;100.00;103645.63;5268986;28;20457;-73
2022/01/14 07:00:23;;;;;;;196.45;45.58;;;;;;;0.13;100.00;103645.63;5265514;28;20485;-73
2022/01/14 07:02:54;;;;;;;152.98;43.42;;;;;;;0.08;100.00;103643.97;5273497;28;20020;-73
2022/01/14 07:05:25;;;;;;;171.02;42.85;;;;;;;0.01;100.00;103664.34;5262604;28;20024;-72
2022/01/14 07:07:55;;;;;;;214.63;46.45;;;;;;;-0.08;100.00;103665.38;5262025;28;20393;-73
2022/01/14 07:10:26;;;;;;;143.98;40.13;;;;;;;-0.18;100.00;103663.81;5276047;28;20032;-72
2022/01/14 07:12:56;;;;;;;142.10;39.78;;;;;;;-0.21;100.00;103660.34;5262891;28;20458;-72
2022/01/14 07:15:27;;;;;;;116.63;36.88;;;;;;;-0.23;100.00;103654.25;5262071;28;20058;-72
2022/01/14 07:17:58;;;;;;;134.95;39.65;;;;;;;-0.24;100.00;103655.16;5263185;28;20023;-72
2022/01/14 07:20:28;;;;;;;121.30;40.80;;;;;;;-0.31;100.00;103655.22;5268987;27;20019;-72
2022/01/14 07:22:59;;;;;;;128.70;40.08;;;;;;;-0.32;100.00;103657.91;5281966;28;20062;-72
2022/01/14 07:25:29;;;;;;;129.38;38.95;;;;;;;-0.30;100.00;103664.91;5281229;28;20019;-72
2022/01/14 07:28:00;;;;;;;142.63;41.90;;;;;;;-0.34;100.00;103659.72;5278622;28;20358;-72
2022/01/14 07:30:30;;;;;;;136.93;41.50;;;;;;;-0.41;100.00;103648.38;5262494;28;20120;-72
2022/01/14 07:33:01;;;;;;;138.65;41.13;;;;;;;-0.47;100.00;103653.78;5263097;28;20083;-71
2022/01/14 07:35:32;;;;;;;152.30;41.55;;;;;;;-0.50;100.00;103648.56;5262941;28;20389;-72
2022/01/14 07:38:02;;;;;;;144.35;43.22;;;;;;;-0.56;100.00;103649.50;5263129;28;20024;-72
2022/01/14 07:40:33;;;;;;;139.20;42.33;;;;;;;-0.59;100.00;103657.50;5262631;28;20020;-72
2022/01/14 07:43:03;;;;;;;132.35;40.80;;;;;;;-0.65;100.00;103662.88;5266358;27;20027;-72
2022/01/14 07:45:34;;;;;;;137.05;40.67;;;;;;;-0.70;100.00;103664.72;5270647;28;20334;-72
2022/01/14 07:48:04;;;;;;;142.43;38.60;;;;;;;-0.73;100.00;103663.88;5268618;28;20612;-72
2022/01/14 07:50:35;;;;;;;132.23;40.13;;;;;;;-0.76;100.00;103669.19;5271674;27;20024;-72
2022/01/14 07:53:05;;;;;;;133.75;40.85;;;;;;;-0.77;100.00;103665.69;5252158;28;20525;-72
2022/01/14 07:55:36;;;;;;;152.38;44.20;;;;;;;-0.70;100.00;103679.63;5268581;28;20116;-72
2022/01/14 07:58:07;;;;;;;148.82;44.60;;;;;;;-0.67;100.00;103682.25;5269928;28;20488;-72
2022/01/14 08:00:38;;;;;;;147.50;41.28;;;;;;;-0.68;100.00;103683.13;5278800;28;20020;-72
2022/01/14 08:03:08;;;;;;;140.50;40.95;;;;;;;-0.69;100.00;103689.31;5275550;28;20457;-72
2022/01/14 08:05:39;;;;;;;148.35;44.53;;;;;;;-0.66;100.00;103683.97;5279418;28;20114;-72
2022/01/14 08:08:10;;;;;;;154.52;44.80;;;;;;;-0.62;100.00;103683.03;5273456;28;20118;-72
2022/01/14 08:10:40;;;;;;;115.40;38.65;;;;;;;-0.59;100.00;103680.38;5275357;28;20120;-72
2022/01/14 08:13:11;;;;;;;125.63;38.15;;;;;;;-0.59;100.00;103677.72;5270032;28;20031;-72
2022/01/14 08:15:41;;;;;;;118.90;33.63;;;;;;;-0.59;100.00;103675.09;5282585;28;20049;-72
2022/01/14 08:18:12;;;;;;;109.85;33.80;;;;;;;-0.59;100.00;103675.97;5266725;28;20016;-72
2022/01/14 08:20:43;;;;;;;103.72;32.50;;;;;;;-0.58;100.00;103675.06;5281506;28;20080;-72
2022/01/14 08:23:13;;;;;;;96.00;32.88;;;;;;;-0.53;100.00;103680.25;5283203;28;20525;-72
2022/01/14 08:25:44;;;;;;;124.05;35.00;;;;;;;-0.49;100.00;103687.22;5275864;27;20024;-72
2022/01/14 08:28:14;;;;;;;99.47;35.20;;;;;;;-0.39;100.00;103688.81;5272677;28;20626;-72
2022/01/14 08:30:45;;;;;;;106.05;33.10;;;;;;;-0.21;100.00;103687.59;5265569;28;20096;-72
2022/01/14 08:33:15;;;;;;;90.75;30.23;;;;;;;-0.05;100.00;103677.63;5274588;28;20093;-72
2022/01/14 08:35:46;;;;;;;87.63;29.60;;;;;;;0.20;100.00;103673.66;5269544;28;20016;-72
2022/01/14 08:38:17;;;;;;;80.88;29.23;;;;;;;0.43;100.00;103667.88;5270882;28;20012;-72
2022/01/14 08:40:48;;;;;;;84.90;29.98;;;;;;;0.67;100.00;103668.28;5274234;28;20115;-73
2022/01/14 08:43:19;;;;;;;87.32;29.35;;;;;;;0.95;100.00;103672.03;5268039;28;20030;-73
2022/01/14 08:45:50;;;;;;;69.70;27.17;;;;;;;1.28;100.00;103674.78;5268151;28;20094;-73
2022/01/14 08:48:20;;;;;;;68.60;27.20;;;;;;;1.64;100.00;103667.69;5272828;28;20031;-73
2022/01/14 08:50:52;;;;;;;71.95;27.67;;;;;;;1.88;100.00;103660.03;5264377;28;20069;-73
2022/01/14 08:53:22;;;;;;;59.42;24.52;;;;;;;2.25;100.00;103654.56;5280651;28;20070;-73
2022/01/14 08:55:53;;;;;;;62.88;25.30;;;;;;;2.88;100.00;103661.53;5276497;28;20048;-73
2022/01/14 08:58:24;;;;;;;64.38;29.02;;;;;;;2.92;100.00;103660.53;5261508;28;20066;-74
2022/01/14 09:00:54;;;;;;;64.03;28.33;;;;;;;3.08;100.00;103659.13;5279383;28;20022;-74
2022/01/14 09:03:25;;;;;;;71.05;29.10;;;;;;;3.07;100.00;103656.53;5269779;28;20039;-74
2022/01/14 09:05:55;;;;;;;59.17;27.50;;;;;;;3.42;100.00;103654.50;5274963;28;20449;-74
2022/01/14 09:08:26;;;;;;;57.90;24.75;;;;;;;3.57;100.00;103649.53;5276773;28;20028;-74
2022/01/14 09:10:56;;;;;;;60.17;26.35;;;;;;;3.73;100.00;103651.66;5274745;28;20091;-74
2022/01/14 09:13:27;;;;;;;50.28;24.65;;;;;;;4.04;100.00;103647.00;5287131;28;20020;-74
2022/01/14 09:15:57;;;;;;;52.00;23.50;;;;;;;4.17;100.00;103650.06;5277557;28;20156;-74
2022/01/14 09:18:29;;;;;;;55.75;25.02;;;;;;;4.24;100.00;103634.75;5278341;28;20043;-74
2022/01/14 09:20:59;;;;;;;52.05;23.27;;;;;;;4.18;100.00;103643.84;5265691;28;20012;-74
2022/01/14 09:23:33;;;;;;;62.38;26.52;;;;;;;4.49;100.00;103642.69;5266028;28;20016;-74
2022/01/14 09:26:03;;;;;;;63.33;26.80;;;;;;;4.51;100.00;103643.47;5265197;28;20090;-74
2022/01/14 09:28:34;;;;;;;62.92;26.45;;;;;;;4.75;100.00;103650.50;5280335;28;20475;-74
2022/01/14 09:31:05;;;;;;;69.57;27.60;;;;;;;4.58;100.00;103643.19;5272091;28;20409;-74
2022/01/14 09:33:37;;;;;;;56.10;25.63;;;;;;;4.66;100.00;103645.53;5278687;27;20370;-74
2022/01/14 09:36:08;;;;;;;50.63;24.10;;;;;;;4.73;100.00;103651.50;5264974;28;20062;-74
2022/01/14 09:38:38;;;;;;;57.08;25.13;;;;;;;4.62;100.00;103638.63;5265001;28;20023;-74
2022/01/14 09:41:09;;;;;;;62.20;26.58;;;;;;;4.88;100.00;103648.25;5278150;28;20024;-74
2022/01/14 09:43:40;;;;;;;51.53;25.38;;;;;;;5.08;100.00;103648.31;5275774;28;20069;-74
2022/01/14 09:46:11;;;;;;;61.85;27.10;;;;;;;5.41;100.00;103648.69;5267503;28;20016;-74
2022/01/14 09:48:41;;;;;;;58.42;28.35;;;;;;;5.81;100.00;103640.78;5277018;28;20024;-74
2022/01/14 09:51:12;;;;;;;61.50;28.90;;;;;;;5.86;100.00;103638.78;5286343;28;20028;-74
2022/01/14 09:53:42;;;;;;;58.95;29.95;;;;;;;6.16;100.00;103647.25;5285372;28;20193;-74
2022/01/14 09:56:17;;;;;;;57.85;27.23;;;;;;;6.39;100.00;103647.09;5278879;28;20032;-73
2022/01/14 09:58:48;;;;;;;53.83;27.45;;;;;;;5.98;100.00;103651.63;5266059;28;20044;-74
2022/01/14 10:01:22;;;;;;;67.75;30.48;;;;;;;6.20;100.00;103648.84;5276444;28;20028;-74
2022/01/14 10:03:56;;;;;;;72.57;31.20;;;;;;;6.25;100.00;103657.50;5267510;28;20103;-74
2022/01/14 10:06:40;;;;;;;71.00;32.92;;;;;;;6.30;100.00;103658.16;5285335;28;20027;-74
2022/01/14 10:09:17;;;;;;;59.13;27.35;;;;;;;6.27;100.00;103654.75;5284844;28;20074;-74
2022/01/14 10:12:17;;;;;;;56.10;27.27;;;;;;;6.23;100.00;103654.06;5285518;28;20050;-74
2022/01/14 10:15:08;;;;;;;64.10;28.60;;;;;;;6.04;100.00;103643.34;5271844;28;20459;-74
2022/01/14 10:17:42;;;;;;;63.53;27.60;;;;;;;5.85;100.00;103647.72;5264124;28;20266;-74
2022/01/14 10:20:15;;;;;;;56.13;27.02;;;;;;;5.78;100.00;103649.81;5267560;28;20455;-74
2022/01/14 10:22:47;;;;;;;52.05;24.42;;;;;;;5.74;100.00;103642.00;5273981;28;20103;-74
2022/01/14 10:25:20;;;;;;;54.22;27.55;;;;;;;5.74;100.00;103648.19;5276860;28;20016;-74
2022/01/14 10:27:52;;;;;;;56.05;24.25;;;;;;;5.78;100.00;103643.63;5271311;28;20028;-73
2022/01/14 10:30:43;;;;;;;63.15;32.17;;;;;;;5.63;100.00;103642.47;5278170;28;20020;-74
2022/01/14 10:33:19;;;;;;;61.40;30.27;;;;;;;5.51;100.00;103641.19;5281487;28;20026;-73
2022/01/14 10:35:50;;;;;;;;;;;;;;;5.50;100.00;103639.47;5285186;28;20032;-73
2022/01/14 10:38:23;;;;;;;63.00;27.52;;;;;;;5.60;100.00;103640.78;5265501;28;19957;-73
2022/01/14 10:40:57;;;;;;;62.13;25.75;;;;;;;5.67;100.00;103644.06;5277464;28;20030;-73
2022/01/14 10:43:45;;;;;;;61.30;27.05;;;;;;;5.66;100.00;103637.00;5285143;28;20018;-73
2022/01/14 10:46:16;;;;;;;57.35;27.83;;;;;;;5.67;100.00;103638.72;5265337;28;20039;-73
2022/01/14 10:48:54;;;;;;;55.78;25.38;;;;;;;5.85;100.00;103645.94;5276915;28;20019;-73
2022/01/14 10:51:25;;;;;;;51.67;24.70;;;;;;;5.86;100.00;103649.44;5277109;27;20028;-73
2022/01/14 10:53:55;;;;;;;51.22;24.58;;;;;;;5.85;100.00;103643.25;5263836;28;20531;-73
2022/01/14 10:56:27;;;;;;;58.53;26.67;;;;;;;5.86;100.00;103618.34;5272091;28;20426;-73
2022/01/14 10:58:59;;;;;;;57.42;25.65;;;;;;;5.82;100.00;103630.06;5281278;28;20552;-73
2022/01/14 11:01:31;;;;;;;58.80;25.67;;;;;;;5.85;100.00;103621.09;5274684;28;20096;-73
2022/01/14 11:04:23;;;;;;;63.80;27.70;;;;;;;5.93;100.00;103617.19;5284399;28;20103;-73
2022/01/14 11:06:53;;;;;;;72.22;29.30;;;;;;;5.97;100.00;103615.22;5270135;28;20032;-73
2022/01/14 11:09:25;;;;;;;60.78;26.08;;;;;;;6.05;100.00;103617.56;5284204;28;20520;-73
2022/01/14 11:11:56;;;;;;;57.75;25.73;;;;;;;6.06;100.00;103616.63;5284369;28;20560;-73
2022/01/14 11:14:27;;;;;;;49.35;22.90;;;;;;;6.21;100.00;103614.13;5273670;28;20106;-74
2022/01/14 11:16:57;;;;;;;59.10;24.80;;;;;;;6.13;100.00;103610.09;5276595;28;20028;-73
2022/01/14 11:19:28;;;;;;;63.08;25.35;;;;;;;6.32;100.00;103613.63;5274524;28;20543;-74
2022/01/14 11:24:48;;;;;;;52.80;24.52;;;;;;;6.41;100.00;103605.19;5268280;28;20393;-73
2022/01/14 11:27:20;;;;;;;53.45;24.90;;;;;;;6.49;100.00;103618.19;5277510;28;20026;-73
2022/01/14 11:29:57;;;;;;;52.15;24.80;;;;;;;6.66;100.00;103614.72;5283214;28;20027;-73
2022/01/14 11:32:28;;;;;;;55.83;25.52;;;;;;;6.59;100.00;103602.63;5271799;28;20024;-73
2022/01/14 11:34:58;;;;;;;54.55;25.70;;;;;;;6.60;100.00;103597.19;5276321;28;20035;-73
2022/01/14 11:37:29;;;;;;;50.38;23.55;;;;;;;6.65;100.00;103596.97;5275810;28;20465;-74
2022/01/14 11:40:02;;;;;;;52.85;25.63;;;;;;;6.77;100.00;103607.03;5262682;28;20107;-74
2022/01/14 11:46:00;;;;;;;56.28;25.33;;;;;;;7.00;100.00;103612.13;5278952;28;20042;-74
2022/01/14 11:48:32;;;;;;;51.15;23.90;;;;;;;7.02;100.00;103604.03;5278137;28;20089;-73
2022/01/14 11:51:06;;;;;;;51.72;24.92;;;;;;;7.09;100.00;103591.28;5264281;28;20143;-73
2022/01/14 11:53:40;;;;;;;53.42;25.00;;;;;;;7.11;100.00;103605.41;5262446;28;20024;-74
2022/01/14 11:56:30;;;;;;;54.63;23.38;;;;;;;7.15;100.00;103590.97;5282435;28;20388;-74